sensor_id;sensor_type;location;lat;lon;timestamp;temperature;humidity
42479;DHT22;28110;47.080;9.476;2024-02-15T00:00:36;9.90;92.60
42479;DHT22;28110;47.080;9.476;2024-02-15T00:03:03;9.90;92.50
42479;DHT22;28110;47.080;9.476;2024-02-15T00:05:29;9.80;92.70
42479;DHT22;28110;47.080;9.476;2024-02-15T00:07:54;9.80;93.00
42479;DHT22;28110;47.080;9.476;2024-02-15T00:10:20;9.80;92.50
42479;DHT22;28110;47.080;9.476;2024-02-15T00:12:50;9.80;92.60
42479;DHT22;28110;47.080;9.476;2024-02-15T00:15:16;9.80;92.40
42479;DHT22;28110;47.080;9.476;2024-02-15T00:17:42;9.80;92.50
42479;DHT22;28110;47.080;9.476;2024-02-15T00:20:07;9.70;92.80
42479;DHT22;28110;47.080;9.476;2024-02-15T00:22:36;9.60;93.10
42479;DHT22;28110;47.080;9.476;2024-02-15T00:25:02;9.50;93.60
42479;DHT22;28110;47.080;9.476;2024-02-15T00:27:28;9.50;93.70
42479;DHT22;28110;47.080;9.476;2024-02-15T00:29:53;9.40;93.90
42479;DHT22;28110;47.080;9.476;2024-02-15T00:32:19;9.40;94.40
42479;DHT22;28110;47.080;9.476;2024-02-15T00:34:44;9.30;94.50
42479;DHT22;28110;47.080;9.476;2024-02-15T00:37:10;9.30;94.70
42479;DHT22;28110;47.080;9.476;2024-02-15T00:39:35;9.20;94.40
42479;DHT22;28110;47.080;9.476;2024-02-15T00:42:01;9.20;94.60
42479;DHT22;28110;47.080;9.476;2024-02-15T00:44:27;9.10;94.70
42479;DHT22;28110;47.080;9.476;2024-02-15T00:46:52;9.00;94.50
42479;DHT22;28110;47.080;9.476;2024-02-15T00:49:18;9.00;94.80
42479;DHT22;28110;47.080;9.476;2024-02-15T00:51:46;9.00;94.70
42479;DHT22;28110;47.080;9.476;2024-02-15T00:54:12;9.00;94.80
42479;DHT22;28110;47.080;9.476;2024-02-15T00:56:37;8.90;95.10
42479;DHT22;28110;47.080;9.476;2024-02-15T00:59:03;9.00;95.00
42479;DHT22;28110;47.080;9.476;2024-02-15T01:01:31;9.10;94.90
42479;DHT22;28110;47.080;9.476;2024-02-15T01:03:57;9.10;94.60
42479;DHT22;28110;47.080;9.476;2024-02-15T01:06:23;9.10;94.80
42479;DHT22;28110;47.080;9.476;2024-02-15T01:08:49;9.10;95.10
42479;DHT22;28110;47.080;9.476;2024-02-15T01:11:15;9.00;95.00
42479;DHT22;28110;47.080;9.476;2024-02-15T01:13:40;9.00;95.00
42479;DHT22;28110;47.080;9.476;2024-02-15T01:16:07;9.10;94.90
42479;DHT22;28110;47.080;9.476;2024-02-15T01:18:33;9.00;94.80
42479;DHT22;28110;47.080;9.476;2024-02-15T01:20:59;9.10;95.00
42479;DHT22;28110;47.080;9.476;2024-02-15T01:23:24;9.20;94.50
42479;DHT22;28110;47.080;9.476;2024-02-15T01:25:51;9.30;93.90
42479;DHT22;28110;47.080;9.476;2024-02-15T01:28:17;9.30;94.00
42479;DHT22;28110;47.080;9.476;2024-02-15T01:30:43;9.40;93.90
42479;DHT22;28110;47.080;9.476;2024-02-15T01:33:09;9.40;93.80
42479;DHT22;28110;47.080;9.476;2024-02-15T01:35:36;9.40;93.90
42479;DHT22;28110;47.080;9.476;2024-02-15T01:38:02;9.40;93.80
42479;DHT22;28110;47.080;9.476;2024-02-15T01:40:27;9.40;94.00
42479;DHT22;28110;47.080;9.476;2024-02-15T01:42:53;9.30;94.30
42479;DHT22;28110;47.080;9.476;2024-02-15T01:45:18;9.20;94.60
42479;DHT22;28110;47.080;9.476;2024-02-15T01:47:44;9.10;94.70
42479;DHT22;28110;47.080;9.476;2024-02-15T01:50:12;9.10;94.90
42479;DHT22;28110;47.080;9.476;2024-02-15T01:52:39;9.00;95.20
42479;DHT22;28110;47.080;9.476;2024-02-15T01:55:06;8.90;95.40
42479;DHT22;28110;47.080;9.476;2024-02-15T01:57:36;8.80;95.70
42479;DHT22;28110;47.080;9.476;2024-02-15T02:00:06;8.70;96.10
42479;DHT22;28110;47.080;9.476;2024-02-15T02:02:35;8.60;96.40
42479;DHT22;28110;47.080;9.476;2024-02-15T02:05:01;8.70;95.30
42479;DHT22;28110;47.080;9.476;2024-02-15T02:07:28;8.90;94.40
42479;DHT22;28110;47.080;9.476;2024-02-15T02:09:53;9.00;94.10
42479;DHT22;28110;47.080;9.476;2024-02-15T02:12:19;9.10;94.00
42479;DHT22;28110;47.080;9.476;2024-02-15T02:14:44;9.10;94.70
42479;DHT22;28110;47.080;9.476;2024-02-15T02:17:11;9.00;94.60
42479;DHT22;28110;47.080;9.476;2024-02-15T02:19:39;8.90;94.80
42479;DHT22;28110;47.080;9.476;2024-02-15T02:22:04;8.80;95.20
42479;DHT22;28110;47.080;9.476;2024-02-15T02:24:33;8.70;95.30
42479;DHT22;28110;47.080;9.476;2024-02-15T02:27:04;8.80;94.90
42479;DHT22;28110;47.080;9.476;2024-02-15T02:29:30;8.80;94.50
42479;DHT22;28110;47.080;9.476;2024-02-15T02:31:57;8.90;94.50
42479;DHT22;28110;47.080;9.476;2024-02-15T02:34:22;8.90;94.70
42479;DHT22;28110;47.080;9.476;2024-02-15T02:36:48;9.00;94.70
42479;DHT22;28110;47.080;9.476;2024-02-15T02:39:15;8.90;94.90
42479;DHT22;28110;47.080;9.476;2024-02-15T02:41:42;8.90;94.80
42479;DHT22;28110;47.080;9.476;2024-02-15T02:44:08;8.90;94.80
42479;DHT22;28110;47.080;9.476;2024-02-15T02:46:33;8.90;94.70
42479;DHT22;28110;47.080;9.476;2024-02-15T02:48:59;8.90;94.40
42479;DHT22;28110;47.080;9.476;2024-02-15T02:51:24;8.80;94.30
42479;DHT22;28110;47.080;9.476;2024-02-15T02:53:50;9.00;93.90
42479;DHT22;28110;47.080;9.476;2024-02-15T02:56:15;9.00;93.80
42479;DHT22;28110;47.080;9.476;2024-02-15T02:58:41;9.10;93.90
42479;DHT22;28110;47.080;9.476;2024-02-15T03:01:08;9.00;93.80
42479;DHT22;28110;47.080;9.476;2024-02-15T03:03:33;9.00;93.80
42479;DHT22;28110;47.080;9.476;2024-02-15T03:05:59;9.00;93.60
42479;DHT22;28110;47.080;9.476;2024-02-15T03:08:24;9.00;93.80
42479;DHT22;28110;47.080;9.476;2024-02-15T03:10:50;9.00;93.90
42479;DHT22;28110;47.080;9.476;2024-02-15T03:13:17;9.00;93.70
42479;DHT22;28110;47.080;9.476;2024-02-15T03:15:45;9.00;94.00
42479;DHT22;28110;47.080;9.476;2024-02-15T03:18:16;9.00;94.00
42479;DHT22;28110;47.080;9.476;2024-02-15T03:20:41;8.90;94.10
42479;DHT22;28110;47.080;9.476;2024-02-15T03:23:07;8.80;94.20
42479;DHT22;28110;47.080;9.476;2024-02-15T03:25:33;8.90;94.00
42479;DHT22;28110;47.080;9.476;2024-02-15T03:28:00;8.90;94.40
42479;DHT22;28110;47.080;9.476;2024-02-15T03:30:30;8.80;94.40
42479;DHT22;28110;47.080;9.476;2024-02-15T03:32:57;8.70;94.60
42479;DHT22;28110;47.080;9.476;2024-02-15T03:35:25;8.70;94.70
42479;DHT22;28110;47.080;9.476;2024-02-15T03:37:51;8.60;94.70
42479;DHT22;28110;47.080;9.476;2024-02-15T03:40:18;8.70;94.60
42479;DHT22;28110;47.080;9.476;2024-02-15T03:42:44;8.60;94.80
42479;DHT22;28110;47.080;9.476;2024-02-15T03:45:10;8.60;94.60
42479;DHT22;28110;47.080;9.476;2024-02-15T03:47:36;8.60;94.70
42479;DHT22;28110;47.080;9.476;2024-02-15T03:50:03;8.60;94.60
42479;DHT22;28110;47.080;9.476;2024-02-15T03:52:30;8.50;94.80
42479;DHT22;28110;47.080;9.476;2024-02-15T03:54:56;8.50;95.20
42479;DHT22;28110;47.080;9.476;2024-02-15T03:57:23;8.40;95.30
42479;DHT22;28110;47.080;9.476;2024-02-15T03:59:48;8.40;95.30
42479;DHT22;28110;47.080;9.476;2024-02-15T04:02:21;8.40;95.40
42479;DHT22;28110;47.080;9.476;2024-02-15T04:04:49;8.30;95.30
42479;DHT22;28110;47.080;9.476;2024-02-15T04:07:15;8.30;95.50
42479;DHT22;28110;47.080;9.476;2024-02-15T04:09:45;8.30;95.50
42479;DHT22;28110;47.080;9.476;2024-02-15T04:12:11;8.20;95.60
42479;DHT22;28110;47.080;9.476;2024-02-15T04:14:37;8.20;95.60
42479;DHT22;28110;47.080;9.476;2024-02-15T04:17:04;8.20;95.80
42479;DHT22;28110;47.080;9.476;2024-02-15T04:19:31;8.20;95.80
42479;DHT22;28110;47.080;9.476;2024-02-15T04:21:56;8.20;96.00
42479;DHT22;28110;47.080;9.476;2024-02-15T04:24:22;8.10;96.20
42479;DHT22;28110;47.080;9.476;2024-02-15T04:26:49;8.10;96.20
42479;DHT22;28110;47.080;9.476;2024-02-15T04:29:15;8.00;96.30
42479;DHT22;28110;47.080;9.476;2024-02-15T04:31:41;8.00;96.10
42479;DHT22;28110;47.080;9.476;2024-02-15T04:34:08;8.00;96.20
42479;DHT22;28110;47.080;9.476;2024-02-15T04:36:35;8.00;96.10
42479;DHT22;28110;47.080;9.476;2024-02-15T04:39:01;8.10;95.80
42479;DHT22;28110;47.080;9.476;2024-02-15T04:41:30;8.10;96.10
42479;DHT22;28110;47.080;9.476;2024-02-15T04:43:55;8.00;96.30
42479;DHT22;28110;47.080;9.476;2024-02-15T04:46:22;8.00;96.20
42479;DHT22;28110;47.080;9.476;2024-02-15T04:48:48;8.00;96.10
42479;DHT22;28110;47.080;9.476;2024-02-15T04:51:17;8.10;95.80
42479;DHT22;28110;47.080;9.476;2024-02-15T04:53:46;8.10;95.80
42479;DHT22;28110;47.080;9.476;2024-02-15T04:56:12;8.10;95.70
42479;DHT22;28110;47.080;9.476;2024-02-15T04:58:42;8.20;95.60
42479;DHT22;28110;47.080;9.476;2024-02-15T05:01:17;8.20;95.80
42479;DHT22;28110;47.080;9.476;2024-02-15T05:03:46;8.10;95.70
42479;DHT22;28110;47.080;9.476;2024-02-15T05:06:12;8.10;95.70
42479;DHT22;28110;47.080;9.476;2024-02-15T05:08:41;8.20;95.40
42479;DHT22;28110;47.080;9.476;2024-02-15T05:11:10;8.20;95.40
42479;DHT22;28110;47.080;9.476;2024-02-15T05:13:43;8.20;95.20
42479;DHT22;28110;47.080;9.476;2024-02-15T05:16:10;8.30;95.10
42479;DHT22;28110;47.080;9.476;2024-02-15T05:18:36;8.30;95.10
42479;DHT22;28110;47.080;9.476;2024-02-15T05:21:03;8.40;94.70
42479;DHT22;28110;47.080;9.476;2024-02-15T05:23:29;8.40;94.50
42479;DHT22;28110;47.080;9.476;2024-02-15T05:25:55;8.50;94.40
42479;DHT22;28110;47.080;9.476;2024-02-15T05:28:22;8.50;94.40
42479;DHT22;28110;47.080;9.476;2024-02-15T05:31:09;8.50;94.40
42479;DHT22;28110;47.080;9.476;2024-02-15T05:33:36;8.50;94.40
42479;DHT22;28110;47.080;9.476;2024-02-15T05:36:04;8.50;94.30
42479;DHT22;28110;47.080;9.476;2024-02-15T05:38:29;8.60;94.10
42479;DHT22;28110;47.080;9.476;2024-02-15T05:40:55;8.60;94.30
42479;DHT22;28110;47.080;9.476;2024-02-15T05:43:22;8.50;94.10
42479;DHT22;28110;47.080;9.476;2024-02-15T05:45:47;8.60;94.20
42479;DHT22;28110;47.080;9.476;2024-02-15T05:48:14;8.50;94.40
42479;DHT22;28110;47.080;9.476;2024-02-15T05:50:40;8.50;94.50
42479;DHT22;28110;47.080;9.476;2024-02-15T05:53:05;8.50;94.60
42479;DHT22;28110;47.080;9.476;2024-02-15T05:55:33;8.50;94.40
42479;DHT22;28110;47.080;9.476;2024-02-15T05:57:59;8.50;94.60
42479;DHT22;28110;47.080;9.476;2024-02-15T06:00:25;8.40;94.70
42479;DHT22;28110;47.080;9.476;2024-02-15T06:02:50;8.40;94.80
42479;DHT22;28110;47.080;9.476;2024-02-15T06:05:18;8.40;94.70
42479;DHT22;28110;47.080;9.476;2024-02-15T06:07:44;8.40;94.70
42479;DHT22;28110;47.080;9.476;2024-02-15T06:10:11;8.40;94.60
42479;DHT22;28110;47.080;9.476;2024-02-15T06:12:36;8.30;94.50
42479;DHT22;28110;47.080;9.476;2024-02-15T06:15:04;8.30;94.60
42479;DHT22;28110;47.080;9.476;2024-02-15T06:17:30;8.30;94.80
42479;DHT22;28110;47.080;9.476;2024-02-15T06:19:57;8.30;94.70
42479;DHT22;28110;47.080;9.476;2024-02-15T06:22:22;8.20;94.60
42479;DHT22;28110;47.080;9.476;2024-02-15T06:24:48;8.10;94.80
42479;DHT22;28110;47.080;9.476;2024-02-15T06:27:13;8.20;94.80
42479;DHT22;28110;47.080;9.476;2024-02-15T06:29:40;8.20;94.80
42479;DHT22;28110;47.080;9.476;2024-02-15T06:32:24;8.10;95.20
42479;DHT22;28110;47.080;9.476;2024-02-15T06:35:09;8.20;95.20
42479;DHT22;28110;47.080;9.476;2024-02-15T06:37:53;8.10;95.10
42479;DHT22;28110;47.080;9.476;2024-02-15T06:40:39;8.10;95.00
42479;DHT22;28110;47.080;9.476;2024-02-15T06:43:04;8.10;95.10
42479;DHT22;28110;47.080;9.476;2024-02-15T06:45:30;8.30;94.10
42479;DHT22;28110;47.080;9.476;2024-02-15T06:47:57;8.40;94.10
42479;DHT22;28110;47.080;9.476;2024-02-15T06:50:23;8.40;94.20
42479;DHT22;28110;47.080;9.476;2024-02-15T06:52:49;8.40;94.20
42479;DHT22;28110;47.080;9.476;2024-02-15T06:55:16;8.50;93.90
42479;DHT22;28110;47.080;9.476;2024-02-15T06:57:44;8.50;94.10
42479;DHT22;28110;47.080;9.476;2024-02-15T07:00:10;8.50;94.30
42479;DHT22;28110;47.080;9.476;2024-02-15T07:02:40;8.40;94.10
42479;DHT22;28110;47.080;9.476;2024-02-15T07:05:06;8.50;93.60
42479;DHT22;28110;47.080;9.476;2024-02-15T07:07:32;8.60;93.30
42479;DHT22;28110;47.080;9.476;2024-02-15T07:09:59;8.70;93.30
42479;DHT22;28110;47.080;9.476;2024-02-15T07:12:28;8.80;93.20
42479;DHT22;28110;47.080;9.476;2024-02-15T07:14:53;8.80;93.70
42479;DHT22;28110;47.080;9.476;2024-02-15T07:17:20;8.70;93.90
42479;DHT22;28110;47.080;9.476;2024-02-15T07:19:46;8.50;94.20
42479;DHT22;28110;47.080;9.476;2024-02-15T07:22:15;8.50;94.50
42479;DHT22;28110;47.080;9.476;2024-02-15T07:24:40;8.30;94.80
42479;DHT22;28110;47.080;9.476;2024-02-15T07:27:06;8.20;95.00
42479;DHT22;28110;47.080;9.476;2024-02-15T07:29:32;8.20;94.90
42479;DHT22;28110;47.080;9.476;2024-02-15T07:32:03;8.20;94.50
42479;DHT22;28110;47.080;9.476;2024-02-15T07:34:30;8.40;93.80
42479;DHT22;28110;47.080;9.476;2024-02-15T07:36:56;8.40;94.30
42479;DHT22;28110;47.080;9.476;2024-02-15T07:39:23;8.40;94.50
42479;DHT22;28110;47.080;9.476;2024-02-15T07:41:51;8.40;94.50
42479;DHT22;28110;47.080;9.476;2024-02-15T07:44:16;8.40;94.50
42479;DHT22;28110;47.080;9.476;2024-02-15T07:46:43;8.50;93.90
42479;DHT22;28110;47.080;9.476;2024-02-15T07:49:08;8.60;93.90
42479;DHT22;28110;47.080;9.476;2024-02-15T07:51:34;8.60;94.10
42479;DHT22;28110;47.080;9.476;2024-02-15T07:54:01;8.70;93.80
42479;DHT22;28110;47.080;9.476;2024-02-15T07:56:27;8.80;93.90
42479;DHT22;28110;47.080;9.476;2024-02-15T07:58:52;8.80;93.70
42479;DHT22;28110;47.080;9.476;2024-02-15T08:01:18;8.80;93.80
42479;DHT22;28110;47.080;9.476;2024-02-15T08:03:47;8.90;93.20
42479;DHT22;28110;47.080;9.476;2024-02-15T08:06:15;9.20;92.40
42479;DHT22;28110;47.080;9.476;2024-02-15T08:08:46;9.40;92.00
42479;DHT22;28110;47.080;9.476;2024-02-15T08:11:12;9.60;92.20
42479;DHT22;28110;47.080;9.476;2024-02-15T08:13:47;9.70;91.60
42479;DHT22;28110;47.080;9.476;2024-02-15T08:16:21;9.70;91.70
42479;DHT22;28110;47.080;9.476;2024-02-15T08:18:51;9.90;91.30
42479;DHT22;28110;47.080;9.476;2024-02-15T08:21:30;9.90;92.10
42479;DHT22;28110;47.080;9.476;2024-02-15T08:23:59;9.80;91.70
42479;DHT22;28110;47.080;9.476;2024-02-15T08:26:26;9.90;92.40
42479;DHT22;28110;47.080;9.476;2024-02-15T08:28:51;9.90;92.30
42479;DHT22;28110;47.080;9.476;2024-02-15T08:31:18;10.00;92.00
42479;DHT22;28110;47.080;9.476;2024-02-15T08:33:45;10.00;92.30
42479;DHT22;28110;47.080;9.476;2024-02-15T08:36:11;10.10;92.30
42479;DHT22;28110;47.080;9.476;2024-02-15T08:38:38;10.10;91.90
42479;DHT22;28110;47.080;9.476;2024-02-15T08:41:04;10.30;91.20
42479;DHT22;28110;47.080;9.476;2024-02-15T08:43:30;10.50;90.30
42479;DHT22;28110;47.080;9.476;2024-02-15T08:45:58;10.60;90.60
42479;DHT22;28110;47.080;9.476;2024-02-15T08:48:24;10.70;90.00
42479;DHT22;28110;47.080;9.476;2024-02-15T08:50:51;10.70;90.60
42479;DHT22;28110;47.080;9.476;2024-02-15T08:53:16;10.80;90.40
42479;DHT22;28110;47.080;9.476;2024-02-15T08:55:44;10.90;90.30
42479;DHT22;28110;47.080;9.476;2024-02-15T08:58:10;11.00;89.30
42479;DHT22;28110;47.080;9.476;2024-02-15T09:00:36;11.10;88.80
42479;DHT22;28110;47.080;9.476;2024-02-15T09:03:02;11.20;87.20
42479;DHT22;28110;47.080;9.476;2024-02-15T09:05:28;11.30;87.90
42479;DHT22;28110;47.080;9.476;2024-02-15T09:07:54;11.30;87.30
42479;DHT22;28110;47.080;9.476;2024-02-15T09:10:19;11.30;87.60
42479;DHT22;28110;47.080;9.476;2024-02-15T09:12:48;11.40;86.60
42479;DHT22;28110;47.080;9.476;2024-02-15T09:15:14;11.40;87.20
42479;DHT22;28110;47.080;9.476;2024-02-15T09:17:40;11.50;87.30
42479;DHT22;28110;47.080;9.476;2024-02-15T09:20:13;11.50;86.90
42479;DHT22;28110;47.080;9.476;2024-02-15T09:25:11;11.70;85.90
42479;DHT22;28110;47.080;9.476;2024-02-15T09:27:39;11.80;85.10
42479;DHT22;28110;47.080;9.476;2024-02-15T09:30:05;11.80;85.40
42479;DHT22;28110;47.080;9.476;2024-02-15T09:32:37;11.90;84.80
42479;DHT22;28110;47.080;9.476;2024-02-15T09:35:05;11.90;85.20
42479;DHT22;28110;47.080;9.476;2024-02-15T09:37:35;12.00;83.90
42479;DHT22;28110;47.080;9.476;2024-02-15T09:40:01;12.00;84.90
42479;DHT22;28110;47.080;9.476;2024-02-15T09:42:31;12.20;83.70
42479;DHT22;28110;47.080;9.476;2024-02-15T09:45:00;12.30;83.10
42479;DHT22;28110;47.080;9.476;2024-02-15T09:47:34;12.30;83.50
42479;DHT22;28110;47.080;9.476;2024-02-15T09:50:00;12.50;83.70
42479;DHT22;28110;47.080;9.476;2024-02-15T09:52:27;12.60;83.00
42479;DHT22;28110;47.080;9.476;2024-02-15T09:54:57;12.70;82.40
42479;DHT22;28110;47.080;9.476;2024-02-15T09:57:24;12.80;83.00
42479;DHT22;28110;47.080;9.476;2024-02-15T09:59:49;12.80;82.70
42479;DHT22;28110;47.080;9.476;2024-02-15T10:02:15;12.90;82.50
42479;DHT22;28110;47.080;9.476;2024-02-15T10:04:41;13.00;81.50
42479;DHT22;28110;47.080;9.476;2024-02-15T10:07:07;13.10;81.20
42479;DHT22;28110;47.080;9.476;2024-02-15T10:09:35;13.20;80.00
42479;DHT22;28110;47.080;9.476;2024-02-15T10:12:08;13.30;81.20
42479;DHT22;28110;47.080;9.476;2024-02-15T10:14:35;13.40;81.40
42479;DHT22;28110;47.080;9.476;2024-02-15T10:17:08;13.50;81.20
42479;DHT22;28110;47.080;9.476;2024-02-15T10:19:37;13.60;79.40
42479;DHT22;28110;47.080;9.476;2024-02-15T10:22:10;13.70;79.40
42479;DHT22;28110;47.080;9.476;2024-02-15T10:24:36;13.80;77.10
42479;DHT22;28110;47.080;9.476;2024-02-15T10:27:05;14.00;78.80
42479;DHT22;28110;47.080;9.476;2024-02-15T10:29:36;14.10;77.20
42479;DHT22;28110;47.080;9.476;2024-02-15T10:32:03;14.10;77.20
42479;DHT22;28110;47.080;9.476;2024-02-15T10:34:29;14.10;76.10
42479;DHT22;28110;47.080;9.476;2024-02-15T10:37:16;14.20;77.40
42479;DHT22;28110;47.080;9.476;2024-02-15T10:39:42;14.10;76.80
42479;DHT22;28110;47.080;9.476;2024-02-15T10:42:08;14.10;76.10
42479;DHT22;28110;47.080;9.476;2024-02-15T10:44:37;14.10;76.20
42479;DHT22;28110;47.080;9.476;2024-02-15T10:47:04;14.10;76.80
42479;DHT22;28110;47.080;9.476;2024-02-15T10:49:34;14.20;75.60
42479;DHT22;28110;47.080;9.476;2024-02-15T10:52:01;14.30;76.70
42479;DHT22;28110;47.080;9.476;2024-02-15T10:54:47;14.40;75.70
42479;DHT22;28110;47.080;9.476;2024-02-15T10:57:20;14.50;75.20
42479;DHT22;28110;47.080;9.476;2024-02-15T10:59:58;14.60;73.60
42479;DHT22;28110;47.080;9.476;2024-02-15T11:04:58;14.70;73.00
42479;DHT22;28110;47.080;9.476;2024-02-15T11:07:27;14.80;73.00
42479;DHT22;28110;47.080;9.476;2024-02-15T11:09:54;14.70;73.40
42479;DHT22;28110;47.080;9.476;2024-02-15T11:12:22;14.80;73.20
42479;DHT22;28110;47.080;9.476;2024-02-15T11:14:49;14.90;71.70
42479;DHT22;28110;47.080;9.476;2024-02-15T11:20:27;15.10;69.90
42479;DHT22;28110;47.080;9.476;2024-02-15T11:22:58;15.20;69.40
42479;DHT22;28110;47.080;9.476;2024-02-15T11:25:37;15.30;68.70
42479;DHT22;28110;47.080;9.476;2024-02-15T11:28:36;15.40;66.90
42479;DHT22;28110;47.080;9.476;2024-02-15T11:31:06;15.50;68.40
42479;DHT22;28110;47.080;9.476;2024-02-15T11:33:35;15.50;68.30
42479;DHT22;28110;47.080;9.476;2024-02-15T11:36:06;15.60;67.20
42479;DHT22;28110;47.080;9.476;2024-02-15T11:38:32;15.60;68.40
42479;DHT22;28110;47.080;9.476;2024-02-15T11:41:05;15.60;69.50
42479;DHT22;28110;47.080;9.476;2024-02-15T11:46:12;15.80;68.10
42479;DHT22;28110;47.080;9.476;2024-02-15T11:48:39;15.80;69.30
42479;DHT22;28110;47.080;9.476;2024-02-15T11:51:05;15.90;69.60
42479;DHT22;28110;47.080;9.476;2024-02-15T11:53:34;16.00;68.90
42479;DHT22;28110;47.080;9.476;2024-02-15T11:56:00;16.00;68.40
42479;DHT22;28110;47.080;9.476;2024-02-15T11:58:27;16.00;69.50
42479;DHT22;28110;47.080;9.476;2024-02-15T12:01:08;16.00;69.60
42479;DHT22;28110;47.080;9.476;2024-02-15T12:03:55;16.00;69.10
42479;DHT22;28110;47.080;9.476;2024-02-15T12:06:39;16.10;68.90
42479;DHT22;28110;47.080;9.476;2024-02-15T12:09:38;16.10;70.30
42479;DHT22;28110;47.080;9.476;2024-02-15T12:12:22;16.10;71.00
42479;DHT22;28110;47.080;9.476;2024-02-15T12:15:06;16.10;69.40
42479;DHT22;28110;47.080;9.476;2024-02-15T12:17:50;16.10;68.90
42479;DHT22;28110;47.080;9.476;2024-02-15T12:20:35;16.10;69.00
42479;DHT22;28110;47.080;9.476;2024-02-15T12:23:00;16.10;69.00
42479;DHT22;28110;47.080;9.476;2024-02-15T12:25:26;16.10;69.00
42479;DHT22;28110;47.080;9.476;2024-02-15T12:27:54;16.20;68.20
42479;DHT22;28110;47.080;9.476;2024-02-15T12:30:20;16.20;67.50
42479;DHT22;28110;47.080;9.476;2024-02-15T12:32:50;16.40;67.60
42479;DHT22;28110;47.080;9.476;2024-02-15T12:35:17;16.40;68.70
42479;DHT22;28110;47.080;9.476;2024-02-15T12:38:00;16.50;67.60
42479;DHT22;28110;47.080;9.476;2024-02-15T12:40:45;16.60;66.60
42479;DHT22;28110;47.080;9.476;2024-02-15T12:43:11;16.70;67.30
42479;DHT22;28110;47.080;9.476;2024-02-15T12:45:38;16.70;67.90
42479;DHT22;28110;47.080;9.476;2024-02-15T12:48:05;16.80;67.50
42479;DHT22;28110;47.080;9.476;2024-02-15T12:50:32;16.80;66.40
42479;DHT22;28110;47.080;9.476;2024-02-15T12:52:58;16.80;67.20
42479;DHT22;28110;47.080;9.476;2024-02-15T12:55:35;16.80;65.50
42479;DHT22;28110;47.080;9.476;2024-02-15T12:58:02;16.90;66.10
42479;DHT22;28110;47.080;9.476;2024-02-15T13:00:34;16.90;65.80
42479;DHT22;28110;47.080;9.476;2024-02-15T13:03:03;17.00;64.50
42479;DHT22;28110;47.080;9.476;2024-02-15T13:05:30;17.00;65.00
42479;DHT22;28110;47.080;9.476;2024-02-15T13:07:57;17.10;65.00
42479;DHT22;28110;47.080;9.476;2024-02-15T13:10:30;17.20;64.20
42479;DHT22;28110;47.080;9.476;2024-02-15T13:13:00;17.30;62.60
42479;DHT22;28110;47.080;9.476;2024-02-15T13:15:25;17.20;63.60
42479;DHT22;28110;47.080;9.476;2024-02-15T13:17:58;17.30;62.20
42479;DHT22;28110;47.080;9.476;2024-02-15T13:20:24;17.30;62.90
42479;DHT22;28110;47.080;9.476;2024-02-15T13:22:57;17.30;64.30
42479;DHT22;28110;47.080;9.476;2024-02-15T13:25:25;17.30;66.30
42479;DHT22;28110;47.080;9.476;2024-02-15T13:27:51;17.30;66.80
42479;DHT22;28110;47.080;9.476;2024-02-15T13:30:17;17.20;67.20
42479;DHT22;28110;47.080;9.476;2024-02-15T13:32:48;17.20;67.20
42479;DHT22;28110;47.080;9.476;2024-02-15T13:35:16;17.20;67.10
42479;DHT22;28110;47.080;9.476;2024-02-15T13:37:46;17.20;67.80
42479;DHT22;28110;47.080;9.476;2024-02-15T13:40:13;17.20;66.20
42479;DHT22;28110;47.080;9.476;2024-02-15T13:42:45;17.10;66.90
42479;DHT22;28110;47.080;9.476;2024-02-15T13:47:57;17.10;69.50
42479;DHT22;28110;47.080;9.476;2024-02-15T13:50:23;17.00;74.10
42479;DHT22;28110;47.080;9.476;2024-02-15T13:52:50;16.90;75.20
42479;DHT22;28110;47.080;9.476;2024-02-15T13:55:17;16.80;74.60
42479;DHT22;28110;47.080;9.476;2024-02-15T13:57:46;16.70;73.40
42479;DHT22;28110;47.080;9.476;2024-02-15T14:00:16;16.70;73.30
42479;DHT22;28110;47.080;9.476;2024-02-15T14:02:56;16.70;72.80
42479;DHT22;28110;47.080;9.476;2024-02-15T14:05:23;16.60;72.40
42479;DHT22;28110;47.080;9.476;2024-02-15T14:07:51;16.60;73.10
42479;DHT22;28110;47.080;9.476;2024-02-15T14:10:21;16.60;72.80
42479;DHT22;28110;47.080;9.476;2024-02-15T14:12:48;16.60;72.10
42479;DHT22;28110;47.080;9.476;2024-02-15T14:15:17;16.60;72.00
42479;DHT22;28110;47.080;9.476;2024-02-15T14:17:46;16.70;71.80
42479;DHT22;28110;47.080;9.476;2024-02-15T14:20:12;16.70;74.00
42479;DHT22;28110;47.080;9.476;2024-02-15T14:22:44;16.70;75.40
42479;DHT22;28110;47.080;9.476;2024-02-15T14:25:10;16.70;75.80
42479;DHT22;28110;47.080;9.476;2024-02-15T14:27:39;16.70;74.80
42479;DHT22;28110;47.080;9.476;2024-02-15T14:30:05;16.60;75.10
42479;DHT22;28110;47.080;9.476;2024-02-15T14:32:49;16.70;74.60
42479;DHT22;28110;47.080;9.476;2024-02-15T14:35:30;16.60;74.80
42479;DHT22;28110;47.080;9.476;2024-02-15T14:38:01;16.60;76.70
42479;DHT22;28110;47.080;9.476;2024-02-15T14:40:28;16.60;77.10
42479;DHT22;28110;47.080;9.476;2024-02-15T14:42:54;16.60;76.80
42479;DHT22;28110;47.080;9.476;2024-02-15T14:45:19;16.60;77.90
42479;DHT22;28110;47.080;9.476;2024-02-15T14:47:45;16.50;79.80
42479;DHT22;28110;47.080;9.476;2024-02-15T14:50:12;16.40;80.80
42479;DHT22;28110;47.080;9.476;2024-02-15T14:52:39;16.40;81.80
42479;DHT22;28110;47.080;9.476;2024-02-15T14:55:05;16.30;82.60
42479;DHT22;28110;47.080;9.476;2024-02-15T14:57:36;16.20;83.10
42479;DHT22;28110;47.080;9.476;2024-02-15T15:00:04;16.20;84.40
42479;DHT22;28110;47.080;9.476;2024-02-15T15:02:30;16.10;84.80
42479;DHT22;28110;47.080;9.476;2024-02-15T15:04:57;16.10;85.10
42479;DHT22;28110;47.080;9.476;2024-02-15T15:07:41;16.10;87.00
42479;DHT22;28110;47.080;9.476;2024-02-15T15:10:25;16.00;86.90
42479;DHT22;28110;47.080;9.476;2024-02-15T15:13:09;16.00;87.30
42479;DHT22;28110;47.080;9.476;2024-02-15T15:15:36;15.90;87.90
42479;DHT22;28110;47.080;9.476;2024-02-15T15:18:03;15.90;88.70
42479;DHT22;28110;47.080;9.476;2024-02-15T15:20:30;15.90;89.70
42479;DHT22;28110;47.080;9.476;2024-02-15T15:22:58;15.80;90.50
42479;DHT22;28110;47.080;9.476;2024-02-15T15:25:24;15.80;90.80
42479;DHT22;28110;47.080;9.476;2024-02-15T15:27:49;15.70;91.10
42479;DHT22;28110;47.080;9.476;2024-02-15T15:30:16;15.60;91.10
42479;DHT22;28110;47.080;9.476;2024-02-15T15:32:44;15.60;91.10
42479;DHT22;28110;47.080;9.476;2024-02-15T15:35:12;15.50;91.00
42479;DHT22;28110;47.080;9.476;2024-02-15T15:37:38;15.50;91.20
42479;DHT22;28110;47.080;9.476;2024-02-15T15:40:04;15.50;91.50
42479;DHT22;28110;47.080;9.476;2024-02-15T15:42:34;15.40;91.90
42479;DHT22;28110;47.080;9.476;2024-02-15T15:45:01;15.30;92.30
42479;DHT22;28110;47.080;9.476;2024-02-15T15:47:26;15.30;92.60
42479;DHT22;28110;47.080;9.476;2024-02-15T15:49:52;15.20;92.80
42479;DHT22;28110;47.080;9.476;2024-02-15T15:52:19;15.20;93.10
42479;DHT22;28110;47.080;9.476;2024-02-15T15:54:45;15.10;93.40
42479;DHT22;28110;47.080;9.476;2024-02-15T15:57:11;15.00;93.60
42479;DHT22;28110;47.080;9.476;2024-02-15T15:59:36;14.90;93.70